< < Back
Terminal Aerodrome Forecast


Current Version              Previous Versions:   1  2  3  4  5  6  7  8  9  

Terminal Aerodrome Forecast

028
FTUS44 KMRX 241209 AAA
TAFCHA
TAF AMD
KCHA 241209Z 2412/2512 00000KT P6SM FEW007 BKN020
     FM241400 VRB04KT P6SM BKN035
     FM241500 31006KT P6SM BKN050
     FM241800 32006KT P6SM VCSH BKN050
     FM250000 34006KT P6SM SKC
     FM250600 00000KT P6SM BKN250=

Latest METAR

644
SAUS80 KWBC 250500
MTRCHA
METAR KCHA 250453Z AUTO 03006KT 10SM CLR 23/17 A3003 RMK AO2 SLP161
T02280172 403170222


USA.gov is the U.S. government's official web portal to all federal, state and local government web resources and services.